createdAt,value
2017-08-19T00:00:47.688Z,81.15
2017-08-19T00:03:21.173Z,80.84
2017-08-19T00:05:57.007Z,80.59
2017-08-19T00:08:34.155Z,80.01
2017-08-19T00:11:09.672Z,80.34
2017-08-19T00:13:44.949Z,80.42
2017-08-19T00:16:24.403Z,80.19
2017-08-19T00:18:59.905Z,80.52
2017-08-19T00:21:32.499Z,80.75
2017-08-19T00:24:13.144Z,80.66
2017-08-19T00:26:50.456Z,80.68
2017-08-19T00:32:14.476Z,80.70
2017-08-19T00:34:52.882Z,80.58
2017-08-19T00:37:33.205Z,80.87
2017-08-19T00:40:18.409Z,80.58
2017-08-19T00:42:53.604Z,80.17
2017-08-19T00:45:29.396Z,80.16
2017-08-19T00:48:07.431Z,79.35
2017-08-19T00:50:45.472Z,78.64
2017-08-19T00:53:23.576Z,78.41
2017-08-19T00:55:57.235Z,78.02
2017-08-19T00:58:32.438Z,77.95
2017-08-19T01:01:06.802Z,77.93
2017-08-19T01:03:47.359Z,77.59
2017-08-19T01:06:29.653Z,77.34
2017-08-19T01:09:04.919Z,77.13
2017-08-19T01:11:40.503Z,76.89
2017-08-19T01:14:15.393Z,77.26
2017-08-19T01:16:49.682Z,77.50
2017-08-19T01:19:31.352Z,77.48
2017-08-19T01:22:09.448Z,77.27
2017-08-19T01:24:48.559Z,77.17
2017-08-19T01:27:26.914Z,77.44
2017-08-19T01:30:01.560Z,77.78
2017-08-19T01:32:41.994Z,77.86
2017-08-19T01:35:17.377Z,77.93
2017-08-19T01:37:58.014Z,77.94
2017-08-19T01:40:39.188Z,78.31
2017-08-19T01:43:16.855Z,78.88
2017-08-19T01:46:00.054Z,79.62
2017-08-19T01:48:33.030Z,79.83
2017-08-19T01:51:08.102Z,80.38
2017-08-19T01:53:42.696Z,81.09
2017-08-19T01:56:22.922Z,81.51
2017-08-19T01:58:58.002Z,82.10
2017-08-19T02:01:29.677Z,82.48
2017-08-19T02:04:01.872Z,82.33
2017-08-19T02:06:33.173Z,81.97
2017-08-19T02:09:05.501Z,81.54
2017-08-19T02:11:36.827Z,81.28
2017-08-19T02:14:09.879Z,81.40
2017-08-19T02:16:41.642Z,81.45
2017-08-19T02:19:12.968Z,81.23
2017-08-19T02:21:44.735Z,81.15
2017-08-19T02:24:16.162Z,80.92
2017-08-19T02:26:47.473Z,80.96
2017-08-19T02:29:19.124Z,80.44
2017-08-19T02:31:51.361Z,80.49
2017-08-19T02:34:22.816Z,80.30
2017-08-19T02:36:55.665Z,80.04
2017-08-19T02:39:27.015Z,79.80
2017-08-19T02:41:59.061Z,78.76
2017-08-19T02:44:31.752Z,78.96
2017-08-19T02:47:03.508Z,79.16
2017-08-19T02:49:34.867Z,79.22
2017-08-19T02:52:06.364Z,78.81
2017-08-19T02:54:37.993Z,78.82
2017-08-19T02:57:09.355Z,78.94
2017-08-19T02:59:40.739Z,78.99
2017-08-19T03:02:14.012Z,78.97
2017-08-19T03:04:45.357Z,79.15
2017-08-19T03:07:16.689Z,78.71
2017-08-19T03:09:48.564Z,78.57
2017-08-19T03:12:20.100Z,78.13
2017-08-19T03:14:52.756Z,78.43
2017-08-19T03:17:24.111Z,78.64
2017-08-19T03:19:57.010Z,79.06
2017-08-19T03:22:28.381Z,78.21
2017-08-19T03:24:59.722Z,78.13
2017-08-19T03:27:31.063Z,78.28
2017-08-19T03:30:03.285Z,77.14
2017-08-19T03:32:34.953Z,76.99
2017-08-19T03:35:07.758Z,76.89
2017-08-19T03:37:39.100Z,76.72
2017-08-19T03:40:12.365Z,76.99
2017-08-19T03:42:43.699Z,76.88
2017-08-19T03:45:14.996Z,76.45
2017-08-19T03:47:46.342Z,76.22
2017-08-19T03:50:18.155Z,75.60
2017-08-19T03:52:49.604Z,75.94
2017-08-19T03:55:20.916Z,75.62
2017-08-19T03:57:52.309Z,75.24
2017-08-19T04:00:24.007Z,74.36
2017-08-19T04:02:56.252Z,74.21
2017-08-19T04:05:27.590Z,73.54
2017-08-19T04:07:58.997Z,74.79
2017-08-19T04:10:30.315Z,74.92
2017-08-19T04:13:01.732Z,75.19
2017-08-19T04:15:33.065Z,75.15
2017-08-19T04:18:07.640Z,74.92
2017-08-19T04:20:39.035Z,75.45
2017-08-19T04:23:10.380Z,75.97
2017-08-19T04:25:42.140Z,76.41
2017-08-19T04:28:13.740Z,76.54
2017-08-19T04:30:45.064Z,76.46
2017-08-19T04:33:16.868Z,76.81
2017-08-19T04:35:48.176Z,76.62
2017-08-19T04:38:19.698Z,77.19
2017-08-19T04:40:52.046Z,77.69
2017-08-19T04:43:23.554Z,78.20
2017-08-19T04:45:56.158Z,78.49
2017-08-19T04:48:27.484Z,78.72
2017-08-19T04:50:59.179Z,77.45
2017-08-19T04:53:30.474Z,76.92
2017-08-19T04:56:02.456Z,77.36
2017-08-19T04:58:34.156Z,77.47
2017-08-19T05:01:05.494Z,77.75
2017-08-19T05:03:36.824Z,78.00
2017-08-19T05:06:08.470Z,78.51
2017-08-19T05:08:40.173Z,79.10
2017-08-19T05:11:11.529Z,79.29
2017-08-19T05:13:42.871Z,79.12
2017-08-19T05:16:16.420Z,79.34
2017-08-19T05:18:47.799Z,78.82
2017-08-19T05:21:19.128Z,79.02
2017-08-19T05:23:51.058Z,78.84
2017-08-19T05:26:22.574Z,78.89
2017-08-19T05:28:55.342Z,79.08
2017-08-19T05:31:26.996Z,79.11
2017-08-19T05:33:59.855Z,78.97
2017-08-19T05:36:31.391Z,79.59
2017-08-19T05:39:03.729Z,79.90
2017-08-19T05:41:35.305Z,80.09
2017-08-19T05:44:08.104Z,79.98
2017-08-19T05:46:39.489Z,79.78
2017-08-19T05:49:11.223Z,80.09
2017-08-19T05:51:42.605Z,80.12
2017-08-19T05:54:14.625Z,79.62
2017-08-19T05:56:46.043Z,79.17
2017-08-19T05:59:17.471Z,78.37
2017-08-19T06:01:49.474Z,78.04
2017-08-19T06:04:21.924Z,78.14
2017-08-19T06:06:54.235Z,78.39
2017-08-19T06:09:25.579Z,77.66
2017-08-19T06:11:57.457Z,76.60
2017-08-19T06:14:28.956Z,76.14
2017-08-19T06:17:00.447Z,75.57
2017-08-19T06:19:32.153Z,74.90
2017-08-19T06:22:05.923Z,73.82
2017-08-19T06:24:37.264Z,73.51
2017-08-19T06:27:08.686Z,73.18
2017-08-19T06:29:40.508Z,72.89
2017-08-19T06:32:12.172Z,72.15
2017-08-19T06:34:43.614Z,72.41
2017-08-19T06:37:15.238Z,71.28
2017-08-19T06:39:46.597Z,71.48
2017-08-19T06:42:18.088Z,71.23
2017-08-19T06:44:49.800Z,71.86
2017-08-19T06:47:21.113Z,71.57
2017-08-19T06:49:53.937Z,72.19
2017-08-19T06:52:25.787Z,72.75
2017-08-19T06:54:57.167Z,73.11
2017-08-19T06:57:28.541Z,72.38
2017-08-19T07:00:00.918Z,71.57
2017-08-19T07:02:32.300Z,71.87
2017-08-19T07:05:04.941Z,71.95
2017-08-19T07:07:36.276Z,71.25
2017-08-19T07:10:07.807Z,69.72
2017-08-19T07:12:39.125Z,68.49
2017-08-19T07:15:10.605Z,69.41
2017-08-19T07:17:42.234Z,70.41
2017-08-19T07:20:13.655Z,70.70
2017-08-19T07:22:44.969Z,69.24
2017-08-19T07:25:16.785Z,68.59
2017-08-19T07:27:48.824Z,68.30
2017-08-19T07:30:20.455Z,69.29
2017-08-19T07:32:56.529Z,68.71
2017-08-19T07:35:28.123Z,68.94
2017-08-19T07:38:00.446Z,68.23
2017-08-19T07:40:37.918Z,68.11
2017-08-19T07:43:09.952Z,67.11
2017-08-19T07:45:41.582Z,67.21
2017-08-19T07:48:18.504Z,67.88
2017-08-19T07:50:52.504Z,66.24
2017-08-19T07:53:24.227Z,66.75
2017-08-19T07:55:57.359Z,65.56
2017-08-19T07:58:29.514Z,65.67
2017-08-19T08:01:01.129Z,65.08
2017-08-19T08:03:33.657Z,65.11
2017-08-19T08:06:07.240Z,63.06
2017-08-19T08:08:38.907Z,60.77
2017-08-19T08:11:10.278Z,59.82
2017-08-19T08:13:41.621Z,59.83
2017-08-19T08:16:15.155Z,58.93
2017-08-19T08:18:46.741Z,57.70
2017-08-19T08:21:18.399Z,57.49
2017-08-19T08:23:54.019Z,57.90
2017-08-19T08:26:25.783Z,58.47
2017-08-19T08:28:57.891Z,57.22
2017-08-19T08:31:29.287Z,56.21
2017-08-19T08:34:01.275Z,56.62
2017-08-19T08:36:32.764Z,56.77
2017-08-19T08:39:05.261Z,56.93
2017-08-19T08:41:36.983Z,56.66
2017-08-19T08:44:10.711Z,55.25
2017-08-19T08:46:42.507Z,53.95
2017-08-19T08:49:17.207Z,54.55
2017-08-19T08:51:48.693Z,54.41
2017-08-19T08:54:21.172Z,52.90
2017-08-19T08:56:57.072Z,52.40
2017-08-19T08:59:29.276Z,50.31
2017-08-19T09:02:00.786Z,48.22
2017-08-19T09:04:33.028Z,47.61
2017-08-19T09:07:04.879Z,47.36
2017-08-19T09:09:36.336Z,46.96
2017-08-19T09:12:09.767Z,47.62
2017-08-19T09:14:41.570Z,46.87
2017-08-19T09:17:13.106Z,46.80
2017-08-19T09:19:44.788Z,45.62
2017-08-19T09:22:16.580Z,46.65
2017-08-19T09:24:47.971Z,46.55
2017-08-19T09:27:19.602Z,45.92
2017-08-19T09:29:51.091Z,45.60
2017-08-19T09:32:22.590Z,45.96
2017-08-19T09:34:56.764Z,45.79
2017-08-19T09:37:28.470Z,45.25
2017-08-19T09:40:01.086Z,47.15
2017-08-19T09:42:32.558Z,46.26
2017-08-19T09:45:04.800Z,45.39
2017-08-19T09:47:36.542Z,44.93
2017-08-19T09:50:09.109Z,43.99
2017-08-19T09:52:40.998Z,43.62
2017-08-19T09:55:12.391Z,41.11
2017-08-19T09:57:43.718Z,41.01
2017-08-19T10:00:17.874Z,39.71
2017-08-19T10:02:49.393Z,39.51
2017-08-19T10:05:21.074Z,39.65
2017-08-19T10:07:55.531Z,39.61
2017-08-19T10:10:35.538Z,41.82
2017-08-19T10:13:07.188Z,42.18
2017-08-19T10:15:38.629Z,40.89
2017-08-19T10:18:12.049Z,40.95
2017-08-19T10:20:43.404Z,39.92
2017-08-19T10:23:14.773Z,38.35
2017-08-19T10:25:46.467Z,38.46
2017-08-19T10:28:17.966Z,37.89
2017-08-19T10:30:49.292Z,39.21
2017-08-19T10:33:20.952Z,39.46
2017-08-19T10:35:55.616Z,39.55
2017-08-19T10:38:28.421Z,39.74
2017-08-19T10:40:59.818Z,40.46
2017-08-19T10:43:31.181Z,40.19
2017-08-19T10:46:06.920Z,39.79
2017-08-19T10:48:38.331Z,38.19
2017-08-19T10:51:09.719Z,35.86
2017-08-19T10:53:41.364Z,35.74
2017-08-19T10:56:16.394Z,35.18
2017-08-19T10:58:48.053Z,35.25
2017-08-19T11:01:19.389Z,35.13
2017-08-19T11:03:52.424Z,35.28
2017-08-19T11:06:24.147Z,35.53
2017-08-19T11:08:56.583Z,33.49
2017-08-19T11:11:28.294Z,31.99
2017-08-19T11:14:01.572Z,31.44
2017-08-19T11:16:34.615Z,31.19
2017-08-19T11:19:06.355Z,29.89
2017-08-19T11:21:38.531Z,29.78
2017-08-19T11:24:11.123Z,30.37
2017-08-19T11:26:42.978Z,30.22
2017-08-19T11:29:14.299Z,32.37
2017-08-19T11:31:45.641Z,32.23
2017-08-19T11:34:17.402Z,31.17
2017-08-19T11:36:48.736Z,29.64
2017-08-19T11:39:20.059Z,28.90
2017-08-19T11:41:52.316Z,29.42
2017-08-19T11:44:24.295Z,29.04
2017-08-19T11:46:56.852Z,27.21
2017-08-19T11:49:28.836Z,27.12
2017-08-19T11:52:00.412Z,26.88
2017-08-19T11:54:31.875Z,27.06
2017-08-19T11:57:03.699Z,27.44
2017-08-19T11:59:35.003Z,26.83
2017-08-19T12:02:08.397Z,26.05
2017-08-19T12:04:40.392Z,26.17
2017-08-19T12:07:11.771Z,26.09
2017-08-19T12:09:43.134Z,25.58
2017-08-19T12:12:15.970Z,25.44
2017-08-19T12:14:47.333Z,24.18
2017-08-19T12:17:18.766Z,23.64
2017-08-19T12:19:51.588Z,22.63
2017-08-19T12:22:23.258Z,22.37
2017-08-19T12:24:55.943Z,20.99
2017-08-19T12:27:27.264Z,20.46
2017-08-19T12:29:59.529Z,20.33
2017-08-19T12:32:31.192Z,18.05
2017-08-19T12:35:02.989Z,16.39
2017-08-19T12:40:35.308Z,13.76
2017-08-19T12:43:06.806Z,12.51
2017-08-19T12:45:38.201Z,11.15
2017-08-19T12:48:10.299Z,10.78
2017-08-19T12:50:42.259Z,9.95
2017-08-19T12:53:14.249Z,9.73
2017-08-19T12:55:46.028Z,9.41
2017-08-19T12:58:17.460Z,9.76
2017-08-19T13:00:48.778Z,9.52
2017-08-19T13:03:20.387Z,9.01
2017-08-19T13:05:51.889Z,9.42
2017-08-19T13:08:23.337Z,8.39
2017-08-19T13:10:56.736Z,8.46
2017-08-19T13:13:28.093Z,8.58
2017-08-19T13:15:59.486Z,8.10
2017-08-19T13:18:31.228Z,7.57
2017-08-19T13:21:02.861Z,8.00
2017-08-19T13:23:35.304Z,7.17
2017-08-19T13:26:07.087Z,7.14
2017-08-19T13:28:38.439Z,6.70
2017-08-19T13:31:09.820Z,6.42
2017-08-19T13:33:41.142Z,7.02
2017-08-19T13:36:13.179Z,8.21
2017-08-19T13:38:44.513Z,7.76
2017-08-19T13:41:16.002Z,7.22
2017-08-19T13:43:47.617Z,6.88
2017-08-19T13:46:19.778Z,7.32
2017-08-19T13:48:51.249Z,6.57
2017-08-19T13:51:22.844Z,8.41
2017-08-19T13:53:55.270Z,8.18
2017-08-19T13:56:26.597Z,8.22
2017-08-19T13:58:58.606Z,8.42
2017-08-19T14:01:29.933Z,10.18
2017-08-19T14:04:02.903Z,9.96
2017-08-19T14:06:34.571Z,8.94
2017-08-19T14:09:06.027Z,10.77
2017-08-19T14:11:37.373Z,13.63
2017-08-19T14:14:09.058Z,16.50
2017-08-19T14:16:40.494Z,18.89
2017-08-19T14:19:11.838Z,20.37
2017-08-19T14:21:43.796Z,17.14
2017-08-19T14:24:15.296Z,15.48
2017-08-19T14:26:46.913Z,13.48
2017-08-19T14:29:18.222Z,12.16
2017-08-19T14:31:50.214Z,10.52
2017-08-19T14:34:21.939Z,11.62
2017-08-19T14:36:54.713Z,12.75
2017-08-19T14:39:26.071Z,11.18
2017-08-19T14:41:58.424Z,12.15
2017-08-19T14:44:29.784Z,13.04
2017-08-19T14:47:01.365Z,11.87
2017-08-19T14:49:33.031Z,11.12
2017-08-19T14:52:05.645Z,10.94
2017-08-19T14:54:37.252Z,9.55
2017-08-19T14:57:09.415Z,9.78
2017-08-19T14:59:41.331Z,10.21
2017-08-19T15:02:13.538Z,10.19
2017-08-19T15:04:45.218Z,10.04
2017-08-19T15:07:17.078Z,10.22
2017-08-19T15:09:51.746Z,9.54
2017-08-19T15:12:24.449Z,9.02
2017-08-19T15:14:56.482Z,9.44
2017-08-19T15:17:27.802Z,10.40
2017-08-19T15:19:59.535Z,9.82
2017-08-19T15:22:30.889Z,9.34
2017-08-19T15:25:02.729Z,8.98
2017-08-19T15:27:34.162Z,8.79
2017-08-19T15:30:07.009Z,8.67
2017-08-19T15:32:38.752Z,9.35
2017-08-19T15:35:10.134Z,9.33
2017-08-19T15:37:41.505Z,8.87
2017-08-19T15:40:13.983Z,9.25
2017-08-19T15:42:45.359Z,9.14
2017-08-19T15:45:16.740Z,9.10
2017-08-19T15:47:50.249Z,8.96
2017-08-19T15:50:21.652Z,9.56
2017-08-19T15:52:54.353Z,9.30
2017-08-19T15:55:25.997Z,9.52
2017-08-19T15:57:57.376Z,9.14
2017-08-19T16:00:28.992Z,9.75
2017-08-19T16:03:00.634Z,10.15
2017-08-19T16:05:31.988Z,10.97
2017-08-19T16:08:04.554Z,11.11
2017-08-19T16:10:36.168Z,11.54
2017-08-19T16:13:07.667Z,10.83
2017-08-19T16:15:39.043Z,10.62
2017-08-19T16:18:12.037Z,11.32
2017-08-19T16:20:43.421Z,11.71
2017-08-19T16:23:15.463Z,13.60
2017-08-19T16:25:47.333Z,13.09
2017-08-19T16:28:18.922Z,13.00
2017-08-19T16:30:50.485Z,13.19
2017-08-19T16:33:22.123Z,13.25
2017-08-19T16:35:55.486Z,12.87
2017-08-19T16:38:26.910Z,13.31
2017-08-19T16:40:58.766Z,13.27
2017-08-19T16:43:30.194Z,15.72
2017-08-19T16:46:03.468Z,16.41
2017-08-19T16:48:35.145Z,15.69
2017-08-19T16:51:06.916Z,15.27
2017-08-19T16:53:38.442Z,15.11
2017-08-19T16:56:11.392Z,15.28
2017-08-19T16:58:42.807Z,16.35
2017-08-19T17:01:14.212Z,17.61
2017-08-19T17:03:45.817Z,18.42
2017-08-19T17:06:17.882Z,20.15
2017-08-19T17:08:49.229Z,20.51
2017-08-19T17:11:21.411Z,21.88
2017-08-19T17:13:54.009Z,22.87
2017-08-19T17:16:25.437Z,23.41
2017-08-19T17:18:57.968Z,24.29
2017-08-19T17:21:29.403Z,25.30
2017-08-19T17:24:00.807Z,26.14
2017-08-19T17:26:32.650Z,27.34
2017-08-19T17:29:04.393Z,28.01
2017-08-19T17:31:36.202Z,28.98
2017-08-19T17:34:09.406Z,30.52
2017-08-19T17:36:40.757Z,30.87
2017-08-19T17:39:12.452Z,31.60
2017-08-19T17:41:44.088Z,32.42
2017-08-19T17:44:15.640Z,32.46
2017-08-19T17:46:47.007Z,32.70
2017-08-19T17:49:18.485Z,33.14
2017-08-19T17:51:50.062Z,33.32
2017-08-19T17:54:22.159Z,33.96
2017-08-19T17:56:54.694Z,34.65
2017-08-19T17:59:26.350Z,35.24
2017-08-19T18:01:58.632Z,34.88
2017-08-19T18:04:29.983Z,35.22
2017-08-19T18:07:01.753Z,35.60
2017-08-19T18:09:33.347Z,36.41
2017-08-19T18:12:09.511Z,36.62
2017-08-19T18:14:41.175Z,36.94
2017-08-19T18:17:12.785Z,37.54
2017-08-19T18:19:44.494Z,37.35
2017-08-19T18:22:16.346Z,37.73
2017-08-19T18:24:47.659Z,38.01
2017-08-19T18:27:19.292Z,38.25
2017-08-19T18:29:50.671Z,38.52
2017-08-19T18:32:22.076Z,38.53
2017-08-19T18:34:56.374Z,38.45
2017-08-19T18:37:27.813Z,38.47
2017-08-19T18:39:59.192Z,38.82
2017-08-19T18:42:31.828Z,39.25
2017-08-19T18:45:03.819Z,39.50
2017-08-19T18:47:35.546Z,39.76
2017-08-19T18:50:08.927Z,39.86
2017-08-19T18:52:40.259Z,40.26
2017-08-19T18:55:12.055Z,40.25
2017-08-19T18:57:43.387Z,40.42
2017-08-19T19:00:15.441Z,40.56
2017-08-19T19:02:46.771Z,40.62
2017-08-19T19:05:18.262Z,40.71
2017-08-19T19:07:49.912Z,40.69
2017-08-19T19:10:22.438Z,40.99
2017-08-19T19:12:56.186Z,41.38
2017-08-19T19:15:27.556Z,41.63
2017-08-19T19:17:58.884Z,42.22
2017-08-19T19:20:30.837Z,42.19
2017-08-19T19:23:02.805Z,42.49
2017-08-19T19:25:34.274Z,42.37
2017-08-19T19:28:08.185Z,42.82
2017-08-19T19:30:39.891Z,43.24
2017-08-19T19:33:11.463Z,43.53
2017-08-19T19:35:42.830Z,43.95
2017-08-19T19:38:16.845Z,44.13
2017-08-19T19:40:48.360Z,44.33
2017-08-19T19:43:20.823Z,44.50
2017-08-19T19:45:56.230Z,44.62
2017-08-19T19:48:28.282Z,44.85
2017-08-19T19:51:02.067Z,45.14
2017-08-19T19:53:34.534Z,45.41
2017-08-19T19:56:11.917Z,45.35
2017-08-19T19:58:43.357Z,45.30
2017-08-19T20:01:14.938Z,45.20
2017-08-19T20:03:46.805Z,45.52
2017-08-19T20:06:18.900Z,45.52
2017-08-19T20:08:50.648Z,45.51
2017-08-19T20:11:22.831Z,45.46
2017-08-19T20:13:56.531Z,45.46
2017-08-19T20:16:28.350Z,45.19
2017-08-19T20:18:59.687Z,45.32
2017-08-19T20:21:31.604Z,45.23
2017-08-19T20:24:06.237Z,45.42
2017-08-19T20:26:37.644Z,45.25
2017-08-19T20:29:09.453Z,45.05
2017-08-19T20:31:40.787Z,45.20
2017-08-19T20:34:18.917Z,45.25
2017-08-19T20:36:50.514Z,45.55
2017-08-19T20:39:22.497Z,45.94
2017-08-19T20:41:56.477Z,45.92
2017-08-19T20:44:28.893Z,46.15
2017-08-19T20:47:02.148Z,46.81
2017-08-19T20:49:33.683Z,47.47
2017-08-19T20:52:07.189Z,47.34
2017-08-19T20:54:38.523Z,47.41
2017-08-19T20:57:10.063Z,47.44
2017-08-19T20:59:41.869Z,47.59
2017-08-19T21:02:15.609Z,47.56
2017-08-19T21:04:47.295Z,47.41
2017-08-19T21:07:18.688Z,47.71
2017-08-19T21:09:50.057Z,48.12
2017-08-19T21:12:22.774Z,48.39
2017-08-19T21:14:55.401Z,48.49
2017-08-19T21:17:26.756Z,48.55
2017-08-19T21:19:58.858Z,48.88
2017-08-19T21:22:30.571Z,48.96
2017-08-19T21:25:02.872Z,49.12
2017-08-19T21:27:34.218Z,49.01
2017-08-19T21:30:08.600Z,49.37
2017-08-19T21:32:40.084Z,49.44
2017-08-19T21:35:12.167Z,49.17
2017-08-19T21:37:44.212Z,49.60
2017-08-19T21:40:18.563Z,49.68
2017-08-19T21:42:50.491Z,49.88
2017-08-19T21:45:21.866Z,50.24
2017-08-19T21:47:53.730Z,50.56
2017-08-19T21:50:25.492Z,50.85
2017-08-19T21:52:57.666Z,50.93
2017-08-19T21:55:29.237Z,50.87
2017-08-19T21:58:00.874Z,51.26
2017-08-19T22:00:32.827Z,51.44
2017-08-19T22:03:04.539Z,51.49
2017-08-19T22:05:36.014Z,52.03
2017-08-19T22:08:09.278Z,52.30
2017-08-19T22:10:40.634Z,52.52
2017-08-19T22:13:12.240Z,52.73
2017-08-19T22:15:43.593Z,52.85
2017-08-19T22:18:15.719Z,53.05
2017-08-19T22:20:47.445Z,53.24
2017-08-19T22:23:19.088Z,53.45
2017-08-19T22:25:50.542Z,53.47
2017-08-19T22:28:22.668Z,54.09
2017-08-19T22:30:56.079Z,54.08
2017-08-19T22:33:27.638Z,54.14
2017-08-19T22:35:59.702Z,54.01
2017-08-19T22:38:31.089Z,54.01
2017-08-19T22:41:02.665Z,53.84
2017-08-19T22:43:34.376Z,54.06
2017-08-19T22:46:08.206Z,54.12
2017-08-19T22:48:39.612Z,54.22
2017-08-19T22:51:11.303Z,54.41
2017-08-19T22:53:43.519Z,54.86
2017-08-19T22:56:17.309Z,55.16
2017-08-19T22:58:48.733Z,55.14
2017-08-19T23:01:20.185Z,55.35
2017-08-19T23:03:51.887Z,55.46
2017-08-19T23:06:23.238Z,55.51
2017-08-19T23:08:56.269Z,55.64
2017-08-19T23:11:27.618Z,55.55
2017-08-19T23:13:59.376Z,55.81
2017-08-19T23:16:30.709Z,55.90
2017-08-19T23:19:02.325Z,56.18
2017-08-19T23:21:34.035Z,56.41
2017-08-19T23:24:07.609Z,56.78
2017-08-19T23:26:39.399Z,56.96
2017-08-19T23:29:10.726Z,57.26
2017-08-19T23:31:42.039Z,57.38
2017-08-19T23:34:14.265Z,57.15
2017-08-19T23:36:45.588Z,57.30
2017-08-19T23:39:16.916Z,57.28
2017-08-19T23:41:48.607Z,57.51
2017-08-19T23:44:20.041Z,57.58
2017-08-19T23:46:51.859Z,58.00
2017-08-19T23:49:23.288Z,58.00
2017-08-19T23:51:55.855Z,58.16
2017-08-19T23:54:27.789Z,58.42
2017-08-19T23:56:59.107Z,58.51
2017-08-19T23:59:30.441Z,58.88
